Time;durP1;ratioP1;P1;durP2;ratioP2;P2;SDS_P1;SDS_P2;PMS_P1;PMS_P2;Temp;Humidity;BMP_temperature;BMP_pressure;BME280_temperature;BME280_humidity;BME280_pressure;Samples;Min_cycle;Max_cycle;Signal;HPM_P1;HPM_P2
2022/11/26 00:00:55;;;;;;;2.13;1.65;;;;;;;-1.07;100.00;93862.16;2129827;27;20034;-73
2022/11/26 00:02:00;;;;;;;4.75;1.58;;;;;;;-1.10;100.00;93855.72;2130053;27;20027;-73
2022/11/26 00:03:00;;;;;;;6.20;2.20;;;;;;;-1.15;100.00;93855.88;2111920;28;20301;-73
2022/11/26 00:04:02;;;;;;;3.40;1.58;;;;;;;-1.14;100.00;93856.66;2116186;27;20015;-74
2022/11/26 00:05:03;;;;;;;5.15;1.58;;;;;;;-1.13;100.00;93858.22;2129603;27;20536;-74
2022/11/26 00:06:32;;;;;;;1.63;1.33;;;;;;;-1.13;100.00;93855.59;2128803;27;20041;-73
2022/11/26 00:07:33;;;;;;;2.90;1.33;;;;;;;-1.17;100.00;93855.47;2120192;27;20031;-72
2022/11/26 00:08:35;;;;;;;4.68;1.75;;;;;;;-1.21;100.00;93853.81;2120281;27;20746;-73
2022/11/26 00:09:38;;;;;;;3.08;1.40;;;;;;;-1.23;100.00;93856.72;2128819;27;20468;-74
2022/11/26 00:10:41;;;;;;;2.03;1.10;;;;;;;-1.28;100.00;93860.31;2129054;27;20471;-74
2022/11/26 00:11:42;;;;;;;3.42;1.17;;;;;;;-1.23;100.00;93854.09;2129741;27;20037;-75
2022/11/26 00:12:44;;;;;;;1.88;1.10;;;;;;;-1.20;100.00;93860.56;2129521;27;20427;-74
2022/11/26 00:13:45;;;;;;;3.45;1.30;;;;;;;-1.23;100.00;93859.34;2123264;27;20031;-72
2022/11/26 00:14:47;;;;;;;7.20;1.35;;;;;;;-1.21;100.00;93857.19;2122146;27;20507;-73
2022/11/26 00:15:48;;;;;;;2.13;1.10;;;;;;;-1.21;100.00;93859.81;2120476;27;20694;-73
2022/11/26 00:16:49;;;;;;;8.93;1.52;;;;;;;-1.17;100.00;93862.56;2111889;27;20552;-73
2022/11/26 00:17:51;;;;;;;6.20;1.42;;;;;;;-1.18;100.00;93866.28;2120907;27;20023;-74
2022/11/26 00:18:52;;;;;;;3.88;1.40;;;;;;;-1.19;100.00;93857.63;2122449;27;20023;-75
2022/11/26 00:19:53;;;;;;;4.15;1.50;;;;;;;-1.20;100.00;93866.59;2113597;27;20490;-73
2022/11/26 00:20:58;;;;;;;7.43;1.35;;;;;;;-1.22;100.00;93862.75;2103235;28;20021;-75
2022/11/26 00:21:59;;;;;;;2.55;1.20;;;;;;;-1.24;100.00;93873.56;2110129;27;20024;-73
2022/11/26 00:23:03;;;;;;;3.03;1.50;;;;;;;-1.28;100.00;93870.81;2117952;27;20697;-75
2022/11/26 00:24:12;;;;;;;2.38;1.48;;;;;;;-1.32;100.00;93862.06;2118966;27;20776;-72
2022/11/26 00:25:16;;;;;;;;;;;;;;;-1.33;100.00;93865.00;2121038;27;20019;-74
2022/11/26 00:26:20;;;;;;;3.17;1.30;;;;;;;-1.43;100.00;93871.41;2118920;27;19957;-73
2022/11/26 00:27:25;;;;;;;1.92;1.30;;;;;;;-1.44;100.00;93867.25;2109930;27;20037;-73
2022/11/26 00:28:28;;;;;;;4.38;1.30;;;;;;;-1.41;100.00;93868.47;2119445;27;20058;-74
2022/11/26 00:29:29;;;;;;;3.25;1.25;;;;;;;-1.39;100.00;93867.06;2119967;27;20035;-73
2022/11/26 00:30:30;;;;;;;2.10;1.23;;;;;;;-1.41;100.00;93868.47;2120386;27;20027;-72
2022/11/26 00:31:31;;;;;;;5.18;1.75;;;;;;;-1.40;100.00;93870.78;2120511;27;20057;-73
2022/11/26 00:32:32;;;;;;;2.80;1.23;;;;;;;-1.43;100.00;93866.16;2119856;27;20023;-75
2022/11/26 00:33:33;;;;;;;3.80;1.30;;;;;;;-1.42;100.00;93867.69;2110986;28;20106;-73
2022/11/26 00:34:34;;;;;;;4.97;1.42;;;;;;;-1.31;100.00;93868.84;2110841;28;20664;-74
2022/11/26 00:35:35;;;;;;;11.75;1.55;;;;;;;-1.31;100.00;93865.47;2124187;27;20034;-74
2022/11/26 00:36:36;;;;;;;7.68;1.60;;;;;;;-1.33;100.00;93870.25;2114349;27;20024;-73
2022/11/26 00:37:41;;;;;;;7.22;1.60;;;;;;;-1.30;100.00;93870.38;2111783;28;20027;-74
2022/11/26 00:38:43;;;;;;;6.78;1.70;;;;;;;-1.26;100.00;93873.13;2119924;27;20019;-74
2022/11/26 00:39:45;;;;;;;11.88;1.77;;;;;;;-1.28;100.00;93870.03;2110883;28;20023;-73
2022/11/26 00:40:46;;;;;;;7.53;1.60;;;;;;;-1.27;100.00;93875.00;2107377;27;20086;-73
2022/11/26 00:41:50;;;;;;;30.08;2.08;;;;;;;-1.24;100.00;93878.81;2119815;27;20035;-75
2022/11/26 00:42:52;;;;;;;14.32;1.70;;;;;;;-1.22;100.00;93876.66;2120126;27;20027;-73
2022/11/26 00:43:54;;;;;;;10.77;1.60;;;;;;;-1.22;100.00;93881.13;2119922;27;20505;-73
2022/11/26 00:44:55;;;;;;;11.80;1.65;;;;;;;-1.20;100.00;93879.69;2120149;27;20030;-75
2022/11/26 00:45:56;;;;;;;47.55;2.38;;;;;;;-1.25;100.00;93882.53;2114412;27;20024;-73
2022/11/26 00:46:57;;;;;;;8.63;1.30;;;;;;;-1.25;100.00;93885.16;2111904;28;20027;-72
2022/11/26 00:48:00;;;;;;;15.98;1.75;;;;;;;-1.17;100.00;93888.78;2119816;27;20035;-72
2022/11/26 00:49:01;;;;;;;8.18;1.75;;;;;;;-1.12;100.00;93891.97;2120622;27;20031;-72
2022/11/26 00:50:03;;;;;;;16.00;1.75;;;;;;;-1.07;100.00;93889.16;2120902;27;20066;-75
2022/11/26 00:51:04;;;;;;;27.08;1.73;;;;;;;-1.06;100.00;93888.06;2124182;27;20026;-73
2022/11/26 00:52:32;;;;;;;30.70;2.05;;;;;;;-1.03;100.00;93890.03;2128417;27;20027;-74
2022/11/26 00:53:34;;;;;;;22.83;1.90;;;;;;;-0.98;100.00;93890.94;2128576;27;20441;-72
2022/11/26 00:54:35;;;;;;;23.52;1.70;;;;;;;-0.99;100.00;93898.03;2129030;27;20079;-73
2022/11/26 00:55:42;;;;;;;80.82;2.65;;;;;;;-0.98;100.00;93902.19;2128435;27;20142;-72
2022/11/26 00:56:45;;;;;;;23.10;1.83;;;;;;;-1.02;100.00;93896.81;2126706;27;20063;-72
2022/11/26 00:57:46;;;;;;;31.65;2.03;;;;;;;-1.04;100.00;93912.13;2128781;27;20155;-72
2022/11/26 00:58:48;;;;;;;33.83;2.20;;;;;;;-1.06;100.00;93911.66;2128054;27;20049;-74
2022/11/26 00:59:49;;;;;;;26.52;2.58;;;;;;;-1.07;100.00;93902.25;2120168;27;20907;-74
2022/11/26 01:00:51;;;;;;;16.98;1.80;;;;;;;-1.04;100.00;93908.72;2128459;27;20116;-72
2022/11/26 01:01:52;;;;;;;45.42;2.33;;;;;;;-1.06;100.00;93905.66;2120488;27;20233;-74
2022/11/26 01:02:55;;;;;;;27.10;1.67;;;;;;;-1.09;100.00;93904.44;2111505;28;20024;-73
2022/11/26 01:03:57;;;;;;;33.83;1.65;;;;;;;-1.04;100.00;93899.00;2119349;27;20076;-73
2022/11/26 01:04:58;;;;;;;50.00;2.53;;;;;;;-1.06;100.00;93916.13;2120685;27;20091;-72
2022/11/26 01:05:59;;;;;;;46.38;2.20;;;;;;;-1.06;100.00;93911.66;2119609;27;20020;-72
2022/11/26 01:07:00;;;;;;;5.97;1.42;;;;;;;-1.03;100.00;93915.50;2126339;27;20038;-74
2022/11/26 01:08:20;;;;;;;5.05;1.42;;;;;;;-1.07;100.00;93910.13;2128748;27;20107;-73
2022/11/26 01:09:22;;;;;;;3.17;1.20;;;;;;;-1.03;100.00;93910.25;2119276;27;20027;-74
2022/11/26 01:10:28;;;;;;;3.00;1.23;;;;;;;-1.00;100.00;93912.25;2120797;27;20031;-73
2022/11/26 01:11:29;;;;;;;7.15;1.38;;;;;;;-0.90;100.00;93917.09;2129233;27;20047;-73
2022/11/26 01:12:30;;;;;;;5.38;1.40;;;;;;;-0.81;100.00;93917.00;2127392;27;20537;-72
2022/11/26 01:13:31;;;;;;;6.60;1.30;;;;;;;-0.78;100.00;93919.75;2119702;27;20030;-73
2022/11/26 01:14:32;;;;;;;1.45;1.10;;;;;;;-0.74;100.00;93919.88;2128354;27;20050;-72
2022/11/26 01:15:33;;;;;;;1.20;1.10;;;;;;;-0.76;100.00;93916.78;2128382;27;20023;-72
2022/11/26 01:16:35;;;;;;;1.23;1.10;;;;;;;-0.75;100.00;93920.94;2127824;27;20042;-73
2022/11/26 01:17:36;;;;;;;1.63;1.38;;;;;;;-0.82;100.00;93918.88;2127527;27;20034;-73
2022/11/26 01:18:37;;;;;;;2.33;2.13;;;;;;;-0.87;100.00;93926.19;2127921;27;20230;-72
2022/11/26 01:19:38;;;;;;;1.83;1.25;;;;;;;-0.81;100.00;93928.25;2128850;27;20040;-74
2022/11/26 01:20:40;;;;;;;2.95;1.27;;;;;;;-0.77;100.00;93925.75;2128990;27;20043;-73
2022/11/26 01:21:41;;;;;;;2.20;1.05;;;;;;;-0.81;100.00;93928.25;2128533;27;20037;-73
2022/11/26 01:22:42;;;;;;;2.35;1.30;;;;;;;-0.76;100.00;93929.91;2128338;27;20027;-74
2022/11/26 01:23:43;;;;;;;2.60;1.10;;;;;;;-0.75;100.00;93928.81;2129091;27;20179;-75
2022/11/26 01:24:44;;;;;;;1.80;1.17;;;;;;;-0.72;100.00;93922.94;2128905;27;20065;-74
2022/11/26 01:25:46;;;;;;;3.03;1.45;;;;;;;-0.67;100.00;93933.22;2128692;27;20081;-73
2022/11/26 01:26:47;;;;;;;1.60;1.50;;;;;;;-0.65;100.00;93938.94;2128389;27;20033;-73
2022/11/26 01:27:48;;;;;;;1.83;1.13;;;;;;;-0.63;100.00;93939.34;2123823;27;20042;-73
2022/11/26 01:28:50;;;;;;;1.40;1.30;;;;;;;-0.62;100.00;93940.13;2120910;27;20098;-73
2022/11/26 01:29:51;;;;;;;1.85;1.35;;;;;;;-0.63;100.00;93933.34;2120396;27;20034;-73
2022/11/26 01:30:52;;;;;;;1.48;1.38;;;;;;;-0.60;100.00;93940.59;2119823;27;20096;-74
2022/11/26 01:31:53;;;;;;;1.30;1.10;;;;;;;-0.60;100.00;93938.72;2120268;27;20023;-74
2022/11/26 01:32:54;;;;;;;3.10;1.30;;;;;;;-0.60;100.00;93941.34;2120551;27;20023;-73
2022/11/26 01:33:56;;;;;;;2.97;1.63;;;;;;;-0.56;100.00;93944.84;2119946;27;20039;-75
2022/11/26 01:34:57;;;;;;;5.18;1.55;;;;;;;-0.55;100.00;93941.13;2119241;27;20071;-72
2022/11/26 01:35:58;;;;;;;2.33;1.40;;;;;;;-0.55;100.00;93940.38;2120041;27;20023;-74
2022/11/26 01:36:58;;;;;;;1.63;1.52;;;;;;;-0.61;100.00;93942.44;2127581;27;20027;-74
2022/11/26 01:38:00;;;;;;;3.47;1.40;;;;;;;-0.60;100.00;93946.59;2127531;27;20664;-75
2022/11/26 01:39:19;;;;;;;3.28;1.73;;;;;;;-0.64;100.00;93945.72;2127866;27;20420;-74
2022/11/26 01:40:22;;;;;;;2.70;1.40;;;;;;;-0.63;100.00;93939.34;2122111;27;20023;-73
2022/11/26 01:42:01;;;;;;;3.33;1.23;;;;;;;-0.64;100.00;93942.31;2119616;27;20674;-74
2022/11/26 01:43:25;;;;;;;1.67;1.25;;;;;;;-0.65;100.00;93956.53;2126433;27;20079;-74
2022/11/26 01:44:29;;;;;;;3.50;1.20;;;;;;;-0.66;100.00;93950.53;2120240;27;20059;-73
2022/11/26 01:45:30;;;;;;;3.53;1.30;;;;;;;-0.68;100.00;93954.56;2119152;27;20049;-73
2022/11/26 01:46:34;;;;;;;5.97;1.48;;;;;;;-0.73;100.00;93954.75;2119371;27;20684;-73
2022/11/26 01:47:35;;;;;;;4.90;1.30;;;;;;;-0.72;100.00;93957.06;2119600;27;20030;-73
2022/11/26 01:48:37;;;;;;;1.40;1.23;;;;;;;-0.76;100.00;93962.19;2119807;27;20030;-73
2022/11/26 01:49:38;;;;;;;3.28;1.30;;;;;;;-0.80;100.00;93966.53;2120211;27;20084;-74
2022/11/26 01:50:51;;;;;;;2.67;1.33;;;;;;;-0.73;100.00;93963.41;2119573;27;20027;-74
2022/11/26 01:52:07;;;;;;;1.92;1.17;;;;;;;-0.74;100.00;93964.50;2119749;27;20508;-73
2022/11/26 01:53:12;;;;;;;3.30;1.20;;;;;;;-0.81;100.00;93965.00;2120229;27;20054;-74
2022/11/26 01:54:14;;;;;;;4.40;1.50;;;;;;;-0.84;100.00;93967.50;2118736;27;20031;-74
2022/11/26 01:55:17;;;;;;;2.35;1.48;;;;;;;-0.81;100.00;93962.38;2110795;27;20058;-73
2022/11/26 01:56:32;;;;;;;3.20;1.20;;;;;;;-0.80;100.00;93963.16;2119224;27;20862;-74
2022/11/26 01:57:37;;;;;;;3.88;1.40;;;;;;;-0.79;100.00;93967.28;2118869;27;20023;-74
2022/11/26 01:58:44;;;;;;;3.83;1.42;;;;;;;-0.78;100.00;93968.84;2119198;27;20038;-74
2022/11/26 01:59:52;;;;;;;5.60;1.33;;;;;;;-0.74;100.00;93967.13;2119442;27;20031;-74
2022/11/26 02:00:54;;;;;;;3.53;1.20;;;;;;;-0.74;100.00;93976.84;2119721;27;20027;-74
2022/11/26 02:01:57;;;;;;;2.92;1.15;;;;;;;-0.74;100.00;93966.34;2120145;27;20030;-73
2022/11/26 02:02:59;;;;;;;4.03;1.50;;;;;;;-0.69;100.00;93976.66;2119767;27;20091;-74
2022/11/26 02:04:11;;;;;;;2.25;1.35;;;;;;;-0.66;100.00;93970.75;2122083;27;20373;-74
2022/11/26 02:05:38;;;;;;;1.20;1.10;;;;;;;-0.68;100.00;93973.69;2129513;27;20054;-74
2022/11/26 02:06:41;;;;;;;4.03;1.20;;;;;;;-0.60;100.00;93972.09;2125446;27;20042;-73
2022/11/26 02:07:43;;;;;;;1.23;1.13;;;;;;;-0.58;100.00;93968.03;2129144;27;20019;-72
2022/11/26 02:08:44;;;;;;;5.28;1.60;;;;;;;-0.57;100.00;93966.97;2129085;27;20110;-73
2022/11/26 02:09:46;;;;;;;1.42;1.30;;;;;;;-0.55;100.00;93967.38;2121014;27;20038;-74
2022/11/26 02:10:49;;;;;;;1.83;1.35;;;;;;;-0.54;100.00;93965.53;2121108;27;20030;-73
2022/11/26 02:11:50;;;;;;;1.58;1.30;;;;;;;-0.53;100.00;93967.06;2119954;27;20031;-73
2022/11/26 02:12:52;;;;;;;1.90;1.33;;;;;;;-0.49;100.00;93975.06;2119566;27;20449;-73
2022/11/26 02:14:01;;;;;;;2.53;1.30;;;;;;;-0.47;100.00;93981.53;2119740;27;20121;-73
2022/11/26 02:16:57;;;;;;;2.95;1.42;;;;;;;-0.45;100.00;93981.19;2127029;27;20191;-75
2022/11/26 02:18:05;;;;;;;1.83;1.35;;;;;;;-0.47;100.00;93976.28;2118480;28;20031;-75
2022/11/26 02:19:06;;;;;;;2.42;1.17;;;;;;;-0.47;100.00;93975.53;2117978;28;20788;-75
2022/11/26 02:20:38;;;;;;;3.70;1.30;;;;;;;-0.46;100.00;93977.03;2112012;28;20028;-75
2022/11/26 02:21:46;;;;;;;3.88;1.30;;;;;;;-0.47;100.00;93978.91;2109902;28;20059;-75
2022/11/26 02:22:56;;;;;;;3.20;1.20;;;;;;;-0.44;100.00;93982.72;2109678;28;20020;-75
2022/11/26 02:24:06;;;;;;;4.43;1.42;;;;;;;-0.48;100.00;93984.47;2109797;28;20069;-75
2022/11/26 02:25:16;;;;;;;2.03;1.20;;;;;;;-0.45;100.00;93989.84;2110271;28;20032;-75
2022/11/26 02:26:28;;;;;;;1.98;1.40;;;;;;;-0.43;100.00;93997.41;2110358;28;20027;-75
2022/11/26 02:27:50;;;;;;;1.88;1.30;;;;;;;-0.39;100.00;93985.16;2110387;28;20074;-75
2022/11/26 02:29:08;;;;;;;3.53;1.33;;;;;;;-0.36;100.00;93984.50;2110233;28;20035;-74
2022/11/26 02:30:12;;;;;;;2.97;1.40;;;;;;;-0.38;100.00;93984.84;2112833;28;20958;-74
2022/11/26 02:31:45;;;;;;;5.15;1.30;;;;;;;-0.30;100.00;93983.22;2118925;27;20023;-75
2022/11/26 02:32:45;;;;;;;2.50;1.27;;;;;;;-0.34;100.00;93982.34;2111817;28;20088;-74
2022/11/26 02:34:03;;;;;;;3.50;1.30;;;;;;;-0.39;100.00;93985.16;2118663;27;20092;-75
2022/11/26 02:35:11;;;;;;;5.03;1.17;;;;;;;-0.35;100.00;93989.44;2117237;27;20019;-74
2022/11/26 02:36:18;;;;;;;2.28;1.50;;;;;;;-0.32;100.00;93988.78;2109172;28;20020;-75
2022/11/26 02:37:24;;;;;;;4.70;1.50;;;;;;;-0.34;100.00;93990.97;2109746;28;20024;-75
2022/11/26 02:38:31;;;;;;;3.75;1.42;;;;;;;-0.33;100.00;93989.13;2110073;28;20423;-74
2022/11/26 02:39:32;;;;;;;2.53;1.23;;;;;;;-0.32;100.00;93993.28;2109549;28;20488;-74
2022/11/26 02:40:33;;;;;;;4.00;1.48;;;;;;;-0.31;100.00;93998.22;2108893;28;20060;-74
2022/11/26 02:41:45;;;;;;;4.93;1.40;;;;;;;-0.36;100.00;93995.78;2109964;28;20035;-75
2022/11/26 02:42:46;;;;;;;3.55;1.90;;;;;;;-0.40;100.00;93994.88;2110349;28;20047;-74
2022/11/26 02:43:47;;;;;;;5.50;1.33;;;;;;;-0.41;100.00;93997.84;2109551;28;20074;-74
2022/11/26 02:44:49;;;;;;;3.72;1.40;;;;;;;-0.39;100.00;93998.31;2110210;28;20023;-74
2022/11/26 02:45:54;;;;;;;5.22;1.70;;;;;;;-0.39;100.00;93990.41;2109706;28;20023;-74
2022/11/26 02:47:01;;;;;;;2.33;1.40;;;;;;;-0.41;100.00;93997.84;2109280;28;20024;-74
2022/11/26 02:48:05;;;;;;;4.30;1.77;;;;;;;-0.47;100.00;93997.28;2110551;28;20451;-73
2022/11/26 02:49:11;;;;;;;2.53;1.35;;;;;;;-0.47;100.00;93999.91;2110647;28;20056;-74
2022/11/26 02:50:18;;;;;;;2.40;1.50;;;;;;;-0.44;100.00;94003.72;2110173;28;20104;-72
2022/11/26 02:51:24;;;;;;;3.13;1.55;;;;;;;-0.43;100.00;94008.69;2115478;28;20111;-73
2022/11/26 02:52:26;;;;;;;2.88;1.60;;;;;;;-0.39;100.00;94011.44;2118225;27;20586;-73
2022/11/26 02:53:32;;;;;;;3.47;1.42;;;;;;;-0.39;100.00;94006.19;2117853;28;20245;-73
2022/11/26 02:54:36;;;;;;;3.22;1.60;;;;;;;-0.42;100.00;94002.34;2118128;28;20038;-74
2022/11/26 02:55:42;;;;;;;3.20;1.58;;;;;;;-0.43;100.00;94013.94;2118464;27;20430;-75
2022/11/26 02:56:43;;;;;;;2.13;1.13;;;;;;;-0.34;100.00;94013.84;2118066;27;20019;-75
2022/11/26 02:57:47;;;;;;;3.05;1.63;;;;;;;-0.35;100.00;94007.03;2117832;28;20057;-75
2022/11/26 02:58:50;;;;;;;3.42;1.20;;;;;;;-0.35;100.00;94007.84;2118048;28;20372;-73
2022/11/26 02:59:52;;;;;;;3.35;1.20;;;;;;;-0.29;100.00;94011.00;2118289;27;20025;-73
2022/11/26 03:00:55;;;;;;;3.47;1.40;;;;;;;-0.28;100.00;94012.53;2118189;28;20697;-72
2022/11/26 03:02:04;;;;;;;3.63;1.20;;;;;;;-0.29;100.00;94016.28;2119326;27;20027;-75
2022/11/26 03:03:08;;;;;;;5.97;1.70;;;;;;;-0.28;100.00;94013.31;2120129;28;20067;-75
2022/11/26 03:04:19;;;;;;;4.97;1.63;;;;;;;-0.23;100.00;94014.97;2120163;28;20117;-76
2022/11/26 03:05:20;;;;;;;2.30;1.40;;;;;;;-0.22;100.00;94016.50;2119816;28;20096;-74
2022/11/26 03:06:21;;;;;;;4.53;1.70;;;;;;;-0.17;100.00;94016.31;2107807;28;20153;-76
2022/11/26 03:07:22;;;;;;;3.17;1.45;;;;;;;-0.12;100.00;94013.47;2103306;28;20040;-73
2022/11/26 03:08:25;;;;;;;3.03;1.52;;;;;;;-0.11;100.00;94015.00;2111857;28;20075;-75
2022/11/26 03:09:27;;;;;;;2.92;1.30;;;;;;;-0.11;100.00;94017.63;2112323;28;20395;-76
2022/11/26 03:10:29;;;;;;;1.83;1.42;;;;;;;-0.05;100.00;94026.81;2111973;28;20089;-76
2022/11/26 03:11:30;;;;;;;6.95;1.45;;;;;;;-0.01;100.00;94016.44;2111068;28;20077;-74
2022/11/26 03:12:31;;;;;;;6.28;1.55;;;;;;;-0.05;100.00;94023.44;2116391;28;20056;-73
2022/11/26 03:13:32;;;;;;;4.03;1.40;;;;;;;-0.04;100.00;94019.72;2111825;28;20035;-75
2022/11/26 03:14:33;;;;;;;2.38;1.40;;;;;;;-0.10;100.00;94015.75;2111906;28;20136;-74
2022/11/26 03:15:34;;;;;;;3.30;1.60;;;;;;;-0.12;100.00;94025.84;2120852;27;20064;-74
2022/11/26 03:16:35;;;;;;;3.85;1.48;;;;;;;-0.09;100.00;94020.72;2126258;27;20179;-76
2022/11/26 03:17:36;;;;;;;5.15;1.45;;;;;;;-0.11;100.00;94025.50;2128245;27;20034;-76
2022/11/26 03:18:37;;;;;;;2.90;1.42;;;;;;;-0.10;100.00;94027.03;2120154;28;20023;-76
2022/11/26 03:19:38;;;;;;;3.22;1.70;;;;;;;-0.12;100.00;94018.72;2111252;28;20023;-76
2022/11/26 03:20:39;;;;;;;3.80;1.50;;;;;;;-0.10;100.00;94019.16;2120417;27;20128;-75
2022/11/26 03:21:40;;;;;;;3.35;1.70;;;;;;;-0.08;100.00;94022.22;2129145;27;20038;-75
2022/11/26 03:22:50;;;;;;;7.65;1.85;;;;;;;-0.12;100.00;94021.34;2128567;27;20441;-76
2022/11/26 03:23:51;;;;;;;3.45;1.52;;;;;;;-0.10;100.00;94016.53;2129399;27;20023;-76
2022/11/26 03:24:52;;;;;;;3.85;1.58;;;;;;;-0.11;100.00;94022.88;2119646;28;20031;-76
2022/11/26 03:25:53;;;;;;;3.40;1.65;;;;;;;0.01;100.00;94026.63;2120039;27;20026;-76
2022/11/26 03:26:54;;;;;;;3.60;1.65;;;;;;;-0.04;100.00;94024.97;2119700;28;20066;-76
2022/11/26 03:27:55;;;;;;;4.53;1.73;;;;;;;0.00;100.00;94025.88;2112698;28;20024;-76
2022/11/26 03:28:56;;;;;;;2.60;1.75;;;;;;;-0.04;100.00;94024.97;2114455;28;20032;-76
2022/11/26 03:29:57;;;;;;;4.18;1.65;;;;;;;-0.04;100.00;94028.38;2114600;28;20034;-77
2022/11/26 03:30:58;;;;;;;4.28;1.40;;;;;;;0.05;100.00;94032.78;2114823;28;20817;-77
2022/11/26 03:31:59;;;;;;;3.25;1.50;;;;;;;0.06;100.00;94027.19;2114861;28;20023;-76
2022/11/26 03:33:00;;;;;;;4.63;1.85;;;;;;;0.02;100.00;94028.94;2116862;27;20080;-76
2022/11/26 03:34:01;;;;;;;5.75;1.80;;;;;;;0.09;100.00;94031.78;2123523;27;20046;-77
2022/11/26 03:35:03;;;;;;;2.88;1.40;;;;;;;0.08;100.00;94032.88;2123510;27;20042;-77
2022/11/26 03:36:04;;;;;;;4.93;1.90;;;;;;;0.15;100.00;94035.72;2121893;27;20027;-76
2022/11/26 03:37:05;;;;;;;4.70;1.88;;;;;;;0.14;100.00;94038.69;2114676;28;20038;-78
2022/11/26 03:38:06;;;;;;;9.82;1.70;;;;;;;0.14;100.00;94041.31;2114596;27;20035;-78
2022/11/26 03:39:07;;;;;;;12.18;1.75;;;;;;;0.14;100.00;94043.97;2114907;28;20081;-78
2022/11/26 03:40:09;;;;;;;5.63;2.33;;;;;;;0.15;100.00;94056.00;2115055;28;20426;-78
2022/11/26 03:41:10;;;;;;;11.32;2.03;;;;;;;0.15;100.00;94048.13;2114407;28;20098;-77
2022/11/26 03:42:11;;;;;;;5.95;1.80;;;;;;;0.16;100.00;94050.41;2114737;28;20095;-77
2022/11/26 03:43:12;;;;;;;7.22;2.83;;;;;;;0.07;100.00;94051.59;2116377;27;20027;-76
2022/11/26 03:44:13;;;;;;;4.15;1.60;;;;;;;0.14;100.00;94049.22;2114272;28;20024;-77
2022/11/26 03:45:14;;;;;;;6.63;2.08;;;;;;;0.19;100.00;94056.88;2114104;28;20039;-77
2022/11/26 03:46:15;;;;;;;3.58;1.70;;;;;;;0.18;100.00;94053.50;2123302;27;20055;-77
2022/11/26 03:47:16;;;;;;;8.38;1.80;;;;;;;0.15;100.00;94051.50;2123095;27;20066;-75
2022/11/26 03:48:17;;;;;;;3.58;1.80;;;;;;;0.14;100.00;94049.97;2120797;27;20365;-75
2022/11/26 03:49:18;;;;;;;7.63;1.90;;;;;;;0.09;100.00;94050.19;2114853;28;20031;-75
2022/11/26 03:50:19;;;;;;;5.82;1.83;;;;;;;0.11;100.00;94048.00;2114869;28;20403;-75
2022/11/26 03:51:20;;;;;;;5.00;1.83;;;;;;;0.10;100.00;94048.31;2114879;28;20444;-75
2022/11/26 03:52:21;;;;;;;6.07;1.65;;;;;;;0.04;100.00;94045.13;2114696;28;20024;-75
2022/11/26 03:53:22;;;;;;;5.38;1.90;;;;;;;0.10;100.00;94048.31;2114164;28;20020;-74
2022/11/26 03:54:23;;;;;;;12.40;2.25;;;;;;;0.08;100.00;94042.63;2113762;28;20053;-75
2022/11/26 03:55:24;;;;;;;4.45;1.90;;;;;;;0.16;100.00;94039.13;2114013;28;20024;-75
2022/11/26 03:56:25;;;;;;;5.90;2.03;;;;;;;0.18;100.00;94039.59;2123038;27;20030;-75
2022/11/26 03:57:26;;;;;;;5.78;1.83;;;;;;;0.23;100.00;94050.66;2123291;27;20065;-75
2022/11/26 03:58:27;;;;;;;4.18;2.22;;;;;;;0.25;100.00;94045.06;2123238;27;20027;-74
2022/11/26 03:59:28;;;;;;;4.47;1.77;;;;;;;0.20;100.00;94048.66;2123174;27;20027;-76
2022/11/26 04:00:29;;;;;;;9.48;1.80;;;;;;;0.23;100.00;94048.00;2124181;27;20750;-75
2022/11/26 04:01:29;;;;;;;6.82;1.90;;;;;;;0.21;100.00;94044.16;2124662;27;20039;-76
2022/11/26 04:02:31;;;;;;;7.40;1.80;;;;;;;0.25;100.00;94047.69;2123498;27;20470;-75
2022/11/26 04:03:32;;;;;;;4.60;2.03;;;;;;;0.24;100.00;94046.16;2123284;27;20023;-75
2022/11/26 04:04:33;;;;;;;6.32;1.85;;;;;;;0.25;100.00;94047.69;2122637;27;20381;-75
2022/11/26 04:05:34;;;;;;;5.93;1.88;;;;;;;0.27;100.00;94047.38;2123378;27;20110;-76
2022/11/26 04:06:35;;;;;;;7.93;2.10;;;;;;;0.23;100.00;94047.25;2117227;27;20027;-76
2022/11/26 04:07:36;;;;;;;4.93;1.65;;;;;;;0.24;100.00;94046.91;2114542;28;20032;-77
2022/11/26 04:08:38;;;;;;;6.72;1.65;;;;;;;0.25;100.00;94042.41;2114420;28;20032;-76
2022/11/26 04:09:39;;;;;;;7.38;1.80;;;;;;;0.23;100.00;94042.00;2120334;27;20027;-76
2022/11/26 04:10:41;;;;;;;3.55;1.60;;;;;;;0.28;100.00;94044.41;2123235;27;20054;-76
2022/11/26 04:11:42;;;;;;;4.18;1.63;;;;;;;0.26;100.00;94041.31;2123354;27;20038;-76
2022/11/26 04:12:43;;;;;;;4.93;1.50;;;;;;;0.31;100.00;94049.03;2122818;27;20027;-75
2022/11/26 04:13:44;;;;;;;6.78;2.38;;;;;;;0.34;100.00;94048.34;2122748;27;20019;-75
2022/11/26 04:14:45;;;;;;;6.20;2.00;;;;;;;0.32;100.00;94044.53;2117222;27;20028;-75
2022/11/26 04:15:47;;;;;;;4.78;1.80;;;;;;;0.30;100.00;94044.84;2114632;28;20032;-76
2022/11/26 04:16:48;;;;;;;7.25;1.80;;;;;;;0.32;100.00;94044.53;2114228;28;20050;-76
2022/11/26 04:17:49;;;;;;;5.13;1.80;;;;;;;0.30;100.00;94044.06;2105643;28;20437;-76
2022/11/26 04:18:49;;;;;;;6.40;2.03;;;;;;;0.34;100.00;94048.34;2106110;27;20158;-75
2022/11/26 04:19:51;;;;;;;3.42;1.77;;;;;;;0.27;100.00;94048.13;2121907;27;20031;-75
2022/11/26 04:20:52;;;;;;;3.58;1.83;;;;;;;0.30;100.00;94042.19;2122883;27;20031;-75
2022/11/26 04:21:53;;;;;;;7.07;2.15;;;;;;;0.32;100.00;94042.66;2123210;27;20030;-75
2022/11/26 04:22:53;;;;;;;8.93;2.03;;;;;;;0.29;100.00;94045.16;2123226;27;20342;-76
2022/11/26 04:23:54;;;;;;;5.70;2.03;;;;;;;0.32;100.00;94047.91;2123234;27;20024;-75
2022/11/26 04:24:55;;;;;;;5.40;1.80;;;;;;;0.33;100.00;94046.81;2118770;27;20542;-75
2022/11/26 04:25:56;;;;;;;3.78;1.77;;;;;;;0.35;100.00;94039.38;2114509;28;20049;-75
2022/11/26 04:26:57;;;;;;;8.48;1.70;;;;;;;0.33;100.00;94036.31;2114790;28;20129;-75
2022/11/26 04:27:58;;;;;;;9.43;2.10;;;;;;;0.34;100.00;94037.06;2114864;28;20031;-75
2022/11/26 04:28:59;;;;;;;3.15;1.77;;;;;;;0.38;100.00;94036.06;2114717;28;20168;-75
2022/11/26 04:30:00;;;;;;;3.80;1.77;;;;;;;0.35;100.00;94039.38;2116338;27;20070;-75
2022/11/26 04:31:02;;;;;;;7.18;2.25;;;;;;;0.37;100.00;94049.56;2123096;27;20030;-74
2022/11/26 04:32:03;;;;;;;6.28;2.30;;;;;;;0.43;100.00;94040.34;2123119;27;20034;-74
2022/11/26 04:33:04;;;;;;;5.10;1.50;;;;;;;0.49;100.00;94041.69;2123210;27;20465;-75
2022/11/26 04:34:05;;;;;;;8.45;2.20;;;;;;;0.52;100.00;94048.91;2123177;27;20034;-74
2022/11/26 04:35:07;;;;;;;5.35;1.65;;;;;;;0.47;100.00;94047.25;2121824;27;20015;-74
2022/11/26 04:36:09;;;;;;;11.95;2.05;;;;;;;0.42;100.00;94042.22;2116411;27;20028;-75
2022/11/26 04:37:10;;;;;;;6.55;2.35;;;;;;;0.41;100.00;94048.59;2124822;27;20062;-74
2022/11/26 04:38:11;;;;;;;9.90;2.10;;;;;;;0.46;100.00;94044.97;2124337;27;20023;-74
2022/11/26 04:39:11;;;;;;;5.30;1.95;;;;;;;0.40;100.00;94044.41;2123817;27;20039;-74
2022/11/26 04:40:13;;;;;;;4.53;1.95;;;;;;;0.43;100.00;94051.63;2121285;27;20059;-76
2022/11/26 04:41:14;;;;;;;6.60;2.00;;;;;;;0.44;100.00;94047.13;2115119;28;20034;-76
2022/11/26 04:42:15;;;;;;;6.97;1.95;;;;;;;0.40;100.00;94054.19;2114845;28;20032;-75
2022/11/26 04:43:16;;;;;;;5.13;2.33;;;;;;;0.43;100.00;94050.88;2114642;28;20106;-75
2022/11/26 04:44:17;;;;;;;7.65;1.77;;;;;;;0.39;100.00;94052.63;2114562;28;20031;-76
2022/11/26 04:45:17;;;;;;;8.57;1.88;;;;;;;0.36;100.00;94059.31;2114032;28;20027;-76
2022/11/26 04:46:18;;;;;;;5.50;1.90;;;;;;;0.35;100.00;94046.47;2117958;27;20035;-76
2022/11/26 04:47:19;;;;;;;7.25;1.65;;;;;;;0.33;100.00;94046.81;2123256;27;20027;-76
2022/11/26 04:48:20;;;;;;;8.65;2.15;;;;;;;0.36;100.00;94050.66;2114260;28;20514;-76
2022/11/26 04:49:21;;;;;;;10.00;2.15;;;;;;;0.32;100.00;94055.03;2114205;28;20382;-75
2022/11/26 04:50:23;;;;;;;7.85;2.20;;;;;;;0.30;100.00;94057.22;2113525;28;20176;-75
2022/11/26 04:51:24;;;;;;;9.38;1.95;;;;;;;0.25;100.00;94058.19;2113066;28;20023;-75
2022/11/26 04:52:25;;;;;;;5.53;1.98;;;;;;;0.22;100.00;94056.22;2114067;28;20043;-75
2022/11/26 04:53:26;;;;;;;9.13;2.03;;;;;;;0.23;100.00;94055.13;2114045;28;20077;-76
2022/11/26 04:54:27;;;;;;;10.02;2.00;;;;;;;0.24;100.00;94054.03;2122939;27;20027;-76
2022/11/26 04:55:28;;;;;;;7.90;2.10;;;;;;;0.25;100.00;94053.69;2121941;27;20472;-75
2022/11/26 04:56:29;;;;;;;5.63;2.20;;;;;;;0.18;100.00;94057.97;2121196;27;20015;-76
2022/11/26 04:57:30;;;;;;;10.52;2.30;;;;;;;0.14;100.00;94054.47;2122517;27;20414;-76